Time;durP1;ratioP1;P1;durP2;ratioP2;P2;SDS_P1;SDS_P2;PMS_P1;PMS_P2;Temp;Humidity;BMP_temperature;BMP_pressure;BME280_temperature;BME280_humidity;BME280_pressure;Samples;Min_cycle;Max_cycle;Signal;HPM_P1;HPM_P2
2023/07/08 00:00:47;;;;;;;7.05;4.13;;;13.80;99.90;;;;;;5053605;28;20029;-73
2023/07/08 00:03:14;;;;;;;4.05;3.22;;;13.80;99.90;;;;;;5053358;28;20056;-73
2023/07/08 00:05:40;;;;;;;6.93;3.95;;;13.70;99.90;;;;;;5053434;28;20528;-73
2023/07/08 00:08:16;;;;;;;7.50;4.00;;;13.70;99.90;;;;;;5053192;28;20033;-73
2023/07/08 00:10:41;;;;;;;8.32;3.78;;;13.70;99.90;;;;;;5053364;28;20032;-72
2023/07/08 00:13:08;;;;;;;5.65;4.10;;;13.70;99.90;;;;;;5052912;28;20037;-73
2023/07/08 00:15:36;;;;;;;8.07;3.35;;;13.60;99.90;;;;;;5053057;28;20159;-73
2023/07/08 00:18:08;;;;;;;6.45;4.53;;;13.60;99.90;;;;;;5035284;28;20524;-72
2023/07/08 00:20:46;;;;;;;4.88;3.75;;;13.50;99.90;;;;;;5035331;28;20519;-72
2023/07/08 00:23:12;;;;;;;7.95;3.88;;;13.50;99.90;;;;;;5053503;28;20021;-72
2023/07/08 00:25:38;;;;;;;5.07;3.78;;;13.50;99.90;;;;;;5053125;28;20376;-73
2023/07/08 00:28:20;;;;;;;6.03;4.03;;;13.50;99.90;;;;;;5052879;28;20032;-73
2023/07/08 00:30:45;;;;;;;7.35;3.97;;;13.40;99.90;;;;;;5053218;28;20029;-72
2023/07/08 00:33:11;;;;;;;8.77;4.32;;;13.40;99.90;;;;;;5036099;28;20051;-73
2023/07/08 00:35:41;;;;;;;5.38;3.45;;;13.40;99.90;;;;;;5038800;28;20036;-73
2023/07/08 00:38:15;;;;;;;5.32;3.55;;;13.40;99.90;;;;;;5056634;28;20056;-73
2023/07/08 00:41:12;;;;;;;8.55;3.80;;;13.30;99.90;;;;;;5039089;28;20098;-72
2023/07/08 00:44:02;;;;;;;10.02;3.78;;;13.30;99.90;;;;;;5009667;28;20047;-73
2023/07/08 00:46:29;;;;;;;6.38;4.10;;;13.30;99.90;;;;;;5056559;28;20036;-72
2023/07/08 00:49:29;;;;;;;6.35;3.85;;;13.30;99.90;;;;;;5056373;28;20465;-73
2023/07/08 00:51:55;;;;;;;4.30;3.88;;;13.20;99.90;;;;;;5056255;28;20096;-73
2023/07/08 00:54:21;;;;;;;7.97;4.40;;;13.20;99.90;;;;;;5038851;28;20418;-73
2023/07/08 00:56:58;;;;;;;7.72;4.30;;;13.10;99.90;;;;;;5056080;28;20032;-72
2023/07/08 00:59:32;;;;;;;6.60;4.72;;;13.10;99.90;;;;;;5038450;28;20021;-73
2023/07/08 01:02:00;;;;;;;10.48;4.57;;;13.00;99.90;;;;;;5038515;28;20439;-72
2023/07/08 01:04:36;;;;;;;7.47;4.13;;;13.00;99.90;;;;;;5056145;28;20025;-73
2023/07/08 01:07:03;;;;;;;6.05;4.05;;;13.00;99.90;;;;;;5038225;28;20037;-72
2023/07/08 01:09:44;;;;;;;5.43;3.75;;;12.90;99.90;;;;;;5055924;28;20040;-73
2023/07/08 01:12:26;;;;;;;11.95;4.85;;;12.90;99.90;;;;;;5038135;28;20020;-73
2023/07/08 01:14:53;;;;;;;6.32;4.57;;;12.80;99.90;;;;;;5038145;28;20028;-72
2023/07/08 01:17:21;;;;;;;7.53;4.53;;;12.80;99.90;;;;;;5056078;28;20033;-72
2023/07/08 01:19:48;;;;;;;7.30;4.10;;;12.80;99.90;;;;;;5037949;28;20112;-73
2023/07/08 01:22:13;;;;;;;5.97;4.03;;;12.70;99.90;;;;;;5055928;28;20112;-73
2023/07/08 01:24:42;;;;;;;6.95;4.40;;;12.70;99.90;;;;;;5056175;28;20079;-73
2023/07/08 01:27:12;;;;;;;10.23;4.20;;;12.70;99.90;;;;;;5037813;28;20422;-73
2023/07/08 01:29:37;;;;;;;6.60;4.43;;;12.70;99.90;;;;;;5037673;28;20457;-72
2023/07/08 01:32:05;;;;;;;8.32;4.50;;;12.60;99.90;;;;;;5055737;28;20116;-73
2023/07/08 01:34:32;;;;;;;5.65;4.30;;;12.60;99.90;;;;;;5055830;28;20074;-73
2023/07/08 01:37:01;;;;;;;5.13;4.10;;;12.60;99.90;;;;;;5037666;28;20033;-72
2023/07/08 01:39:29;;;;;;;4.28;3.88;;;12.60;99.90;;;;;;5037760;28;20029;-72
2023/07/08 01:41:55;;;;;;;7.35;4.53;;;12.50;99.90;;;;;;5055405;28;20037;-73
2023/07/08 01:44:35;;;;;;;8.88;4.32;;;12.50;99.90;;;;;;5054757;28;20029;-73
2023/07/08 01:47:14;;;;;;;8.60;4.45;;;12.50;99.90;;;;;;5055092;28;20110;-73
2023/07/08 01:49:41;;;;;;;;;;;12.50;99.90;;;;;;5055517;28;20495;-72
2023/07/08 01:52:08;;;;;;;6.60;4.07;;;12.50;99.90;;;;;;5055569;28;19917;-73
2023/07/08 01:54:34;;;;;;;6.28;4.53;;;12.40;99.90;;;;;;5055437;28;20025;-72
2023/07/08 01:57:01;;;;;;;5.75;4.47;;;12.40;99.90;;;;;;5055361;28;20396;-73
2023/07/08 01:59:27;;;;;;;5.28;4.22;;;12.40;99.90;;;;;;5055144;28;20044;-72
2023/07/08 02:01:55;;;;;;;4.50;3.80;;;12.30;99.90;;;;;;5037156;28;20477;-73
2023/07/08 02:04:25;;;;;;;11.27;4.70;;;12.30;99.90;;;;;;5037217;28;20029;-72
2023/07/08 02:06:55;;;;;;;6.80;4.18;;;12.30;99.90;;;;;;5055252;28;20017;-73
2023/07/08 02:09:21;;;;;;;7.72;4.63;;;12.30;99.90;;;;;;5054878;28;20037;-73
2023/07/08 02:11:47;;;;;;;6.22;4.47;;;12.30;99.90;;;;;;5054863;28;20029;-72
2023/07/08 02:14:12;;;;;;;6.82;4.40;;;12.20;99.90;;;;;;5037208;28;20024;-73
2023/07/08 02:16:38;;;;;;;7.00;4.05;;;12.20;99.90;;;;;;5054721;28;20075;-73
2023/07/08 02:19:04;;;;;;;7.40;4.10;;;12.20;99.90;;;;;;5036838;28;20032;-72
2023/07/08 02:21:30;;;;;;;5.80;4.70;;;12.20;99.90;;;;;;5054395;28;20029;-73
2023/07/08 02:23:57;;;;;;;6.55;4.53;;;12.20;99.90;;;;;;5054630;28;20453;-73
2023/07/08 02:26:24;;;;;;;10.90;5.53;;;12.20;99.90;;;;;;5036948;28;20032;-72
2023/07/08 02:28:49;;;;;;;8.55;4.00;;;12.20;99.90;;;;;;5036595;28;20037;-72
2023/07/08 02:31:15;;;;;;;7.70;4.57;;;12.10;99.90;;;;;;5054235;28;20031;-72
2023/07/08 02:33:41;;;;;;;7.50;5.20;;;12.10;99.90;;;;;;5054657;28;20020;-73
2023/07/08 02:36:06;;;;;;;6.28;4.50;;;12.10;99.90;;;;;;5054107;28;20358;-72
2023/07/08 02:38:32;;;;;;;5.20;4.45;;;12.10;99.90;;;;;;5036575;28;20033;-73
2023/07/08 02:40:59;;;;;;;7.70;4.60;;;12.00;99.90;;;;;;5054320;28;20075;-73
2023/07/08 02:43:25;;;;;;;10.18;4.70;;;12.00;99.90;;;;;;5036332;28;20025;-73
2023/07/08 02:45:51;;;;;;;8.02;4.47;;;12.00;99.90;;;;;;5054328;28;20113;-73
2023/07/08 02:48:20;;;;;;;4.90;4.40;;;11.90;99.90;;;;;;5036471;28;20068;-72
2023/07/08 02:50:46;;;;;;;6.90;4.20;;;11.90;99.90;;;;;;5048192;28;20136;-73
2023/07/08 02:53:12;;;;;;;5.63;4.53;;;11.90;99.90;;;;;;5072884;28;20115;-73
2023/07/08 02:55:39;;;;;;;6.32;4.22;;;11.90;99.90;;;;;;5074087;28;20451;-72
2023/07/08 02:58:04;;;;;;;7.40;4.45;;;11.90;99.90;;;;;;5072756;28;20456;-73
2023/07/08 03:00:30;;;;;;;6.55;4.63;;;11.80;99.90;;;;;;5073733;28;20025;-73
2023/07/08 03:02:55;;;;;;;4.53;4.13;;;11.90;99.90;;;;;;5074238;28;20469;-73
2023/07/08 03:05:21;;;;;;;19.05;5.72;;;11.90;99.90;;;;;;5073658;28;20025;-73
2023/07/08 03:07:47;;;;;;;6.78;4.80;;;11.90;99.90;;;;;;5073632;28;20032;-73
2023/07/08 03:10:12;;;;;;;8.52;5.00;;;11.80;99.90;;;;;;5073968;28;20157;-73
2023/07/08 03:12:38;;;;;;;10.23;4.75;;;11.80;99.90;;;;;;5073705;28;20029;-72
2023/07/08 03:15:05;;;;;;;5.95;4.55;;;11.80;99.90;;;;;;5073857;28;20111;-72
2023/07/08 03:17:30;;;;;;;6.07;4.43;;;11.80;99.90;;;;;;5073970;28;20055;-73
2023/07/08 03:19:56;;;;;;;8.43;4.63;;;11.80;99.90;;;;;;5073750;28;20032;-73
2023/07/08 03:22:21;;;;;;;5.22;4.60;;;11.80;99.90;;;;;;5073786;28;20025;-73
2023/07/08 03:24:47;;;;;;;5.45;4.30;;;11.80;99.90;;;;;;5073791;28;20056;-73
2023/07/08 03:27:16;;;;;;;6.07;4.10;;;11.80;99.90;;;;;;5073542;28;20036;-72
2023/07/08 03:29:42;;;;;;;9.10;4.90;;;11.80;99.90;;;;;;5072349;28;20106;-73
2023/07/08 03:32:12;;;;;;;8.43;5.30;;;11.80;99.90;;;;;;5072359;28;20465;-73
2023/07/08 03:34:38;;;;;;;7.60;4.53;;;11.80;99.90;;;;;;5073658;28;20032;-73
2023/07/08 03:37:05;;;;;;;8.85;5.70;;;11.80;99.90;;;;;;5071844;28;20078;-73
2023/07/08 03:39:33;;;;;;;7.22;4.75;;;11.90;99.90;;;;;;5072328;28;20024;-73
2023/07/08 03:41:59;;;;;;;7.60;4.80;;;11.90;99.90;;;;;;5073640;28;20429;-73
2023/07/08 03:44:25;;;;;;;9.18;5.10;;;11.90;99.90;;;;;;5074112;28;20078;-72
2023/07/08 03:46:50;;;;;;;6.50;4.63;;;11.90;99.90;;;;;;5072247;28;20028;-72
2023/07/08 03:49:21;;;;;;;10.85;3.88;;;12.00;99.90;;;;;;5072125;28;20032;-73
2023/07/08 03:51:48;;;;;;;4.95;3.75;;;12.10;99.90;;;;;;5071841;28;20572;-73
2023/07/08 03:54:14;;;;;;;8.05;4.10;;;12.20;99.90;;;;;;5073181;28;20021;-72
2023/07/08 03:56:40;;;;;;;9.18;4.20;;;12.20;99.90;;;;;;5073160;28;20487;-72
2023/07/08 03:59:06;;;;;;;6.30;3.60;;;12.20;99.90;;;;;;5072176;28;20040;-73
2023/07/08 04:01:31;;;;;;;7.93;4.22;;;12.20;99.90;;;;;;5072199;28;20119;-73
2023/07/08 04:03:59;;;;;;;9.13;4.03;;;12.30;99.90;;;;;;5073304;28;20102;-73
2023/07/08 04:06:26;;;;;;;4.82;3.95;;;12.30;99.90;;;;;;5072084;28;20074;-73
2023/07/08 04:08:52;;;;;;;5.47;3.67;;;12.40;99.90;;;;;;5075348;28;20120;-73
2023/07/08 04:11:20;;;;;;;4.85;3.88;;;12.40;99.90;;;;;;5077161;28;20075;-72
2023/07/08 04:13:45;;;;;;;5.68;3.53;;;12.50;99.90;;;;;;5077041;28;20427;-73
2023/07/08 04:16:24;;;;;;;8.50;4.05;;;12.60;99.90;;;;;;5075824;28;20051;-73
2023/07/08 04:18:53;;;;;;;4.32;3.70;;;12.60;99.90;;;;;;5076795;28;20411;-72
2023/07/08 04:21:19;;;;;;;6.40;3.93;;;12.70;99.90;;;;;;5075456;28;20032;-73
2023/07/08 04:23:45;;;;;;;4.53;3.28;;;12.80;99.90;;;;;;5076663;28;20416;-72
2023/07/08 04:26:10;;;;;;;5.53;3.92;;;12.80;99.90;;;;;;5077054;28;20060;-72
2023/07/08 04:28:36;;;;;;;4.18;3.75;;;13.00;99.90;;;;;;5075443;28;20127;-72
2023/07/08 04:31:03;;;;;;;7.45;3.53;;;13.00;99.90;;;;;;5075683;28;20032;-73
2023/07/08 04:33:29;;;;;;;6.53;4.00;;;13.10;99.90;;;;;;5076794;28;20376;-73
2023/07/08 04:35:55;;;;;;;5.07;3.42;;;13.20;99.90;;;;;;5076713;28;20028;-73
2023/07/08 04:38:24;;;;;;;7.35;4.10;;;13.30;99.90;;;;;;5076622;28;20047;-73
2023/07/08 04:40:53;;;;;;;;;;;13.50;99.90;;;;;;5077624;28;20361;-73
2023/07/08 04:43:20;;;;;;;5.68;4.10;;;13.60;99.90;;;;;;5076597;28;19911;-72
2023/07/08 04:45:51;;;;;;;4.20;3.50;;;13.70;99.90;;;;;;5075227;28;20103;-73
2023/07/08 04:48:20;;;;;;;6.55;3.45;;;13.80;99.90;;;;;;5076658;28;20070;-72
2023/07/08 04:50:48;;;;;;;7.80;3.40;;;13.90;99.90;;;;;;5068350;28;20045;-73
2023/07/08 04:53:14;;;;;;;3.95;3.40;;;13.90;99.90;;;;;;5056404;28;20025;-73
2023/07/08 04:55:55;;;;;;;3.40;3.10;;;14.00;99.90;;;;;;5038706;28;20479;-72
2023/07/08 04:58:21;;;;;;;4.88;3.30;;;14.10;99.90;;;;;;5056536;28;20104;-73
2023/07/08 05:00:47;;;;;;;5.00;3.17;;;14.20;99.90;;;;;;5038579;28;20056;-72
2023/07/08 05:03:13;;;;;;;5.82;3.00;;;14.30;99.90;;;;;;5056185;28;20022;-73
2023/07/08 05:05:38;;;;;;;4.80;3.30;;;14.40;99.90;;;;;;5038379;28;20078;-72
2023/07/08 05:08:05;;;;;;;6.82;3.90;;;14.40;99.90;;;;;;5055743;28;20381;-72
2023/07/08 05:10:31;;;;;;;4.30;3.28;;;14.50;99.90;;;;;;5055748;28;20480;-73
2023/07/08 05:12:57;;;;;;;4.38;3.55;;;14.60;99.90;;;;;;5055992;28;20021;-72
2023/07/08 05:15:22;;;;;;;4.93;3.25;;;14.70;99.90;;;;;;5055986;28;20017;-72
2023/07/08 05:17:51;;;;;;;6.30;3.20;;;14.80;99.90;;;;;;5055638;28;20086;-72
2023/07/08 05:20:18;;;;;;;;;;;14.90;99.90;;;;;;5055101;28;20032;-72
2023/07/08 05:22:45;;;;;;;5.97;3.53;;;15.00;99.90;;;;;;5055955;28;19905;-72
2023/07/08 05:25:12;;;;;;;9.38;3.92;;;15.10;99.90;;;;;;5055981;28;20024;-72
2023/07/08 05:27:37;;;;;;;5.88;3.20;;;15.20;99.90;;;;;;5055628;28;20024;-72
2023/07/08 05:30:05;;;;;;;6.55;3.13;;;15.30;99.90;;;;;;5037687;28;20048;-72
2023/07/08 05:32:31;;;;;;;8.40;3.55;;;15.50;99.90;;;;;;5055576;28;20059;-73
2023/07/08 05:34:56;;;;;;;4.00;2.70;;;15.70;99.90;;;;;;5038096;28;20025;-72
2023/07/08 05:37:25;;;;;;;4.55;2.95;;;15.90;99.90;;;;;;5055812;28;20025;-72
2023/07/08 05:39:54;;;;;;;4.93;2.80;;;16.20;99.90;;;;;;5037552;28;20025;-73
2023/07/08 05:42:20;;;;;;;7.65;3.55;;;16.40;99.90;;;;;;5055425;28;20024;-72
2023/07/08 05:44:46;;;;;;;4.70;2.72;;;16.70;99.90;;;;;;5037810;28;20025;-72
2023/07/08 05:47:13;;;;;;;5.50;3.20;;;16.90;99.90;;;;;;5037478;28;20021;-72
2023/07/08 05:49:39;;;;;;;4.63;2.95;;;17.10;99.90;;;;;;5037226;28;20033;-72
2023/07/08 05:52:10;;;;;;;3.53;2.92;;;17.30;99.90;;;;;;5070992;28;20044;-73
2023/07/08 05:54:40;;;;;;;9.52;3.42;;;17.50;99.90;;;;;;5075446;28;20399;-72
2023/07/08 05:57:08;;;;;;;7.45;3.95;;;17.80;99.90;;;;;;5075078;28;20021;-72
2023/07/08 05:59:35;;;;;;;8.00;2.95;;;18.00;99.90;;;;;;5075525;28;20453;-71
2023/07/08 06:02:01;;;;;;;8.27;3.15;;;18.30;99.90;;;;;;5074752;28;20025;-73
2023/07/08 06:04:28;;;;;;;9.38;3.45;;;18.50;99.90;;;;;;5075003;28;20070;-73
2023/07/08 06:06:53;;;;;;;5.05;3.42;;;18.70;99.90;;;;;;5074252;28;20078;-72
2023/07/08 06:09:19;;;;;;;6.55;3.42;;;18.90;99.90;;;;;;5074776;28;20068;-70
2023/07/08 06:11:45;;;;;;;7.53;3.53;;;19.10;99.90;;;;;;5073713;28;20421;-60
2023/07/08 06:14:10;;;;;;;9.07;3.70;;;19.30;99.90;;;;;;5074410;28;20055;-61
2023/07/08 06:16:36;;;;;;;6.55;3.50;;;19.50;99.90;;;;;;5074662;28;20025;-60
2023/07/08 06:19:02;;;;;;;4.55;3.08;;;19.70;99.90;;;;;;5074632;28;20025;-60
2023/07/08 06:21:27;;;;;;;5.38;3.20;;;20.10;99.90;;;;;;5074595;28;20034;-60
2023/07/08 06:23:53;;;;;;;5.35;3.10;;;20.50;99.90;;;;;;5074489;28;20032;-62
2023/07/08 06:26:19;;;;;;;5.50;3.42;;;21.00;99.90;;;;;;5074753;28;20426;-60
2023/07/08 06:28:44;;;;;;;6.78;3.55;;;21.60;99.90;;;;;;5074559;28;20120;-68
2023/07/08 06:31:10;;;;;;;15.75;3.97;;;22.10;99.50;;;;;;5072861;28;20029;-61
2023/07/08 06:33:36;;;;;;;10.70;4.18;;;22.60;98.90;;;;;;5074459;28;20020;-60
2023/07/08 06:36:02;;;;;;;12.75;3.40;;;23.20;98.20;;;;;;5074420;28;20491;-61
2023/07/08 06:38:28;;;;;;;14.20;3.80;;;23.80;95.00;;;;;;5072942;28;20092;-61
2023/07/08 06:40:53;;;;;;;6.97;3.33;;;24.30;94.10;;;;;;5073020;28;20452;-63
2023/07/08 06:43:19;;;;;;;4.20;3.03;;;24.80;90.60;;;;;;5072983;28;20031;-61
2023/07/08 06:45:45;;;;;;;8.10;3.40;;;25.10;86.90;;;;;;5072783;28;20532;-63
2023/07/08 06:48:10;;;;;;;6.15;3.15;;;25.30;84.10;;;;;;5074778;28;20024;-62
2023/07/08 06:50:37;;;;;;;5.10;3.25;;;25.30;79.10;;;;;;5067589;28;20495;-60
2023/07/08 06:53:03;;;;;;;4.78;2.90;;;25.30;79.60;;;;;;5036139;28;20021;-61
2023/07/08 06:55:29;;;;;;;3.90;3.20;;;25.40;79.10;;;;;;5036099;28;20032;-60
2023/07/08 06:57:55;;;;;;;6.65;3.40;;;25.60;76.40;;;;;;5054039;28;20021;-61
2023/07/08 07:00:22;;;;;;;4.80;3.03;;;25.50;73.20;;;;;;5053987;28;20104;-61
2023/07/08 07:02:47;;;;;;;8.43;3.58;;;25.60;74.60;;;;;;5053958;28;20074;-62
2023/07/08 07:05:13;;;;;;;5.57;2.90;;;25.80;74.80;;;;;;5053983;28;20435;-62
2023/07/08 07:07:38;;;;;;;6.32;3.25;;;26.20;72.50;;;;;;5053856;28;20071;-63
2023/07/08 07:10:05;;;;;;;3.70;2.58;;;26.50;72.70;;;;;;5053470;28;20473;-63
2023/07/08 07:12:31;;;;;;;5.95;2.80;;;27.00;70.40;;;;;;5053889;28;20111;-64
2023/07/08 07:14:57;;;;;;;5.57;3.00;;;27.30;68.30;;;;;;5036014;28;20065;-76
2023/07/08 07:17:25;;;;;;;7.22;3.33;;;27.60;67.90;;;;;;5053814;28;20507;-77
2023/07/08 07:19:50;;;;;;;4.70;2.97;;;27.80;65.60;;;;;;5035547;28;20029;-77
2023/07/08 07:22:16;;;;;;;5.03;3.10;;;28.00;61.80;;;;;;5053587;28;20116;-76
2023/07/08 07:24:42;;;;;;;4.32;2.75;;;27.90;63.50;;;;;;5035836;28;20131;-76
2023/07/08 07:27:09;;;;;;;6.22;3.30;;;28.20;63.30;;;;;;5053744;28;20029;-76
2023/07/08 07:29:44;;;;;;;7.05;2.83;;;28.60;61.40;;;;;;5053542;28;20068;-76
2023/07/08 07:32:11;;;;;;;3.72;2.90;;;28.90;58.00;;;;;;5036278;28;20021;-76
2023/07/08 07:34:39;;;;;;;4.70;3.10;;;29.30;57.50;;;;;;5053480;28;20025;-76
2023/07/08 07:37:16;;;;;;;7.77;2.67;;;29.80;57.00;;;;;;5053528;28;20033;-76
2023/07/08 07:39:42;;;;;;;7.75;3.40;;;29.90;56.70;;;;;;5035634;28;20127;-76
2023/07/08 07:42:09;;;;;;;4.45;2.75;;;30.20;55.90;;;;;;5053548;28;20049;-76
2023/07/08 07:44:35;;;;;;;3.40;3.08;;;30.60;54.60;;;;;;5038949;28;20021;-76
2023/07/08 07:47:02;;;;;;;3.80;2.85;;;30.40;53.00;;;;;;5039523;28;20469;-77
2023/07/08 07:49:28;;;;;;;8.13;3.10;;;30.10;53.20;;;;;;5057530;28;20041;-76
2023/07/08 07:51:54;;;;;;;5.50;2.60;;;30.60;51.80;;;;;;5057931;28;20064;-76
2023/07/08 07:54:20;;;;;;;3.83;2.75;;;30.80;51.60;;;;;;5057769;28;20131;-76
2023/07/08 07:56:46;;;;;;;7.90;3.13;;;30.80;51.60;;;;;;5057493;28;20028;-76
2023/07/08 07:59:11;;;;;;;2.92;2.70;;;31.20;51.20;;;;;;5040266;28;20060;-76
2023/07/08 08:01:37;;;;;;;5.95;3.20;;;31.30;50.30;;;;;;5057366;28;20027;-76
2023/07/08 08:04:03;;;;;;;7.57;3.03;;;31.60;49.60;;;;;;5057347;28;20453;-76
2023/07/08 08:06:29;;;;;;;8.13;3.20;;;31.50;48.40;;;;;;5057014;28;20043;-76
2023/07/08 08:08:56;;;;;;;3.75;2.38;;;31.70;49.30;;;;;;5057183;28;20037;-76
2023/07/08 08:11:22;;;;;;;5.38;2.90;;;32.30;48.70;;;;;;5039351;28;20083;-76
2023/07/08 08:13:48;;;;;;;6.43;2.63;;;32.60;47.90;;;;;;5057313;28;20032;-76
2023/07/08 08:16:13;;;;;;;4.03;2.65;;;32.90;46.80;;;;;;5057237;28;20487;-76
2023/07/08 08:18:39;;;;;;;3.72;2.45;;;33.30;46.00;;;;;;5057046;28;20104;-76
2023/07/08 08:21:04;;;;;;;5.95;3.05;;;33.40;45.60;;;;;;5056679;28;20032;-76
2023/07/08 08:23:30;;;;;;;4.53;2.75;;;33.60;45.20;;;;;;5056937;28;20032;-77
2023/07/08 08:25:55;;;;;;;5.55;3.10;;;33.50;44.70;;;;;;5056876;28;20021;-76
2023/07/08 08:28:21;;;;;;;8.10;2.60;;;33.70;45.50;;;;;;5056763;28;20036;-76
2023/07/08 08:30:48;;;;;;;5.03;2.75;;;33.70;44.20;;;;;;5057123;28;20369;-76
2023/07/08 08:33:14;;;;;;;4.28;2.90;;;33.60;44.00;;;;;;5038907;28;20021;-76
2023/07/08 08:35:39;;;;;;;4.53;3.30;;;33.80;44.60;;;;;;5057019;28;20095;-76
2023/07/08 08:38:05;;;;;;;4.05;2.97;;;33.80;45.00;;;;;;5056832;28;20108;-77
2023/07/08 08:40:31;;;;;;;4.45;3.28;;;33.70;44.50;;;;;;5038741;28;20082;-76
2023/07/08 08:43:09;;;;;;;3.17;2.97;;;33.80;44.20;;;;;;5056477;28;20029;-76
2023/07/08 08:45:43;;;;;;;4.07;3.40;;;33.80;44.00;;;;;;5056777;28;20032;-76
2023/07/08 08:48:13;;;;;;;3.60;3.28;;;33.60;44.50;;;;;;5038951;28;20083;-76
2023/07/08 08:50:47;;;;;;;4.15;3.20;;;33.80;43.20;;;;;;5048143;28;20558;-76
2023/07/08 08:53:15;;;;;;;6.55;3.83;;;34.00;44.00;;;;;;5076224;28;20468;-76
2023/07/08 08:55:42;;;;;;;4.95;3.25;;;34.40;43.40;;;;;;5075989;28;20070;-76
2023/07/08 08:58:36;;;;;;;4.72;3.35;;;34.40;43.70;;;;;;5076413;28;20111;-76
2023/07/08 09:01:08;;;;;;;3.50;3.10;;;34.30;43.30;;;;;;5076457;28;20024;-77
2023/07/08 09:03:47;;;;;;;5.97;3.28;;;34.40;42.80;;;;;;5076853;28;20111;-77
2023/07/08 09:06:50;;;;;;;5.30;3.42;;;34.50;43.70;;;;;;5074963;28;20025;-76
2023/07/08 09:09:21;;;;;;;7.25;3.38;;;34.70;43.40;;;;;;4994430;28;20030;-77
2023/07/08 09:12:02;;;;;;;6.32;3.28;;;34.70;43.30;;;;;;5061827;28;20044;-77
2023/07/08 09:14:30;;;;;;;4.93;3.28;;;35.20;42.50;;;;;;5076099;28;20047;-77
2023/07/08 09:17:01;;;;;;;5.30;3.07;;;35.30;41.60;;;;;;5076003;28;20372;-77
2023/07/08 09:19:38;;;;;;;5.18;3.05;;;35.30;41.10;;;;;;5074709;28;20052;-77
2023/07/08 09:22:14;;;;;;;5.15;3.08;;;35.50;41.60;;;;;;5074816;28;20462;-77
2023/07/08 09:24:42;;;;;;;3.55;2.90;;;35.70;41.70;;;;;;5075865;28;20038;-77
2023/07/08 09:27:08;;;;;;;5.63;3.10;;;35.70;40.20;;;;;;5075759;28;20024;-77
2023/07/08 09:29:34;;;;;;;8.88;3.40;;;35.60;40.70;;;;;;5075743;28;20464;-77
2023/07/08 09:32:13;;;;;;;9.43;3.03;;;35.70;40.40;;;;;;5075681;28;20028;-77
2023/07/08 09:34:49;;;;;;;4.07;2.60;;;36.10;38.70;;;;;;5075516;28;20028;-77
2023/07/08 09:37:28;;;;;;;7.18;3.40;;;35.80;38.90;;;;;;5074493;28;20376;-77
2023/07/08 09:39:56;;;;;;;4.53;3.08;;;34.90;41.70;;;;;;5075665;28;20032;-77
2023/07/08 09:42:32;;;;;;;2.67;2.45;;;35.00;40.70;;;;;;5074293;28;20024;-77
2023/07/08 09:45:10;;;;;;;3.22;2.80;;;35.20;40.30;;;;;;5075507;28;20051;-77
2023/07/08 09:47:37;;;;;;;4.72;3.05;;;35.50;40.50;;;;;;5075571;28;20036;-77
2023/07/08 09:50:15;;;;;;;2.88;2.42;;;35.50;39.10;;;;;;5073372;28;20021;-77
2023/07/08 09:52:41;;;;;;;7.93;3.00;;;35.70;39.90;;;;;;5055634;28;20028;-77
2023/07/08 09:55:11;;;;;;;3.00;2.70;;;35.80;39.40;;;;;;5055307;28;20040;-77
2023/07/08 09:57:37;;;;;;;3.67;3.10;;;36.00;39.60;;;;;;5037323;28;20411;-77
2023/07/08 10:00:11;;;;;;;3.20;2.90;;;36.10;40.10;;;;;;5037229;28;20029;-77
2023/07/08 10:02:44;;;;;;;3.17;2.80;;;36.50;39.30;;;;;;5055202;28;20108;-78
2023/07/08 10:05:29;;;;;;;3.22;2.72;;;36.80;38.80;;;;;;5054836;28;20025;-77
2023/07/08 10:07:57;;;;;;;10.82;3.20;;;36.70;38.30;;;;;;5038310;28;20054;-79
2023/07/08 10:10:34;;;;;;;3.55;2.70;;;36.70;39.00;;;;;;5037444;28;20369;-77
2023/07/08 10:13:11;;;;;;;4.90;2.63;;;36.40;38.40;;;;;;5055049;28;20043;-77
2023/07/08 10:15:47;;;;;;;3.75;2.50;;;36.40;38.50;;;;;;5055189;28;20033;-77
2023/07/08 10:18:15;;;;;;;4.72;3.25;;;36.60;39.30;;;;;;5054934;28;20481;-77
2023/07/08 10:21:06;;;;;;;6.25;2.92;;;36.30;37.70;;;;;;5036797;28;20024;-77
2023/07/08 10:24:05;;;;;;;4.65;2.60;;;36.10;38.80;;;;;;5054444;28;20393;-77
2023/07/08 10:26:34;;;;;;;6.45;3.47;;;36.20;39.00;;;;;;5036844;28;20021;-78
2023/07/08 10:29:18;;;;;;;5.70;2.90;;;36.40;38.50;;;;;;5036740;28;20025;-77
2023/07/08 10:32:18;;;;;;;2.85;2.65;;;36.40;38.10;;;;;;5036548;28;20033;-78
2023/07/08 10:34:54;;;;;;;4.43;2.70;;;37.00;37.60;;;;;;5054426;28;20473;-77
2023/07/08 10:37:46;;;;;;;5.78;2.85;;;37.30;37.40;;;;;;5054573;28;20028;-77
2023/07/08 10:40:21;;;;;;;3.22;2.80;;;37.30;37.40;;;;;;5054402;28;20377;-78
2023/07/08 10:42:55;;;;;;;3.05;2.65;;;37.50;36.20;;;;;;5055021;28;20037;-77
2023/07/08 10:45:37;;;;;;;3.20;2.85;;;37.40;37.00;;;;;;5054106;28;20036;-77
2023/07/08 10:48:21;;;;;;;9.75;2.53;;;37.00;37.10;;;;;;5036457;28;20033;-77
2023/07/08 10:51:05;;;;;;;3.53;2.60;;;36.60;36.00;;;;;;5054016;28;20083;-77
2023/07/08 10:54:07;;;;;;;4.57;2.80;;;36.00;35.00;;;;;;5036434;28;20048;-77
2023/07/08 10:56:57;;;;;;;3.35;2.00;;;35.40;36.10;;;;;;5004207;28;20040;-76
2023/07/08 10:59:31;;;;;;;3.05;2.28;;;35.70;36.30;;;;;;5055198;28;20071;-77
2023/07/08 11:02:03;;;;;;;3.00;2.20;;;35.70;35.30;;;;;;5054761;28;20048;-77
2023/07/08 11:04:28;;;;;;;5.70;2.05;;;35.60;35.70;;;;;;5036143;28;20033;-79
2023/07/08 11:07:09;;;;;;;3.83;2.60;;;35.90;34.20;;;;;;5053915;28;20021;-80
2023/07/08 11:09:58;;;;;;;3.30;2.20;;;35.90;35.10;;;;;;5036947;28;20037;-76
2023/07/08 11:12:48;;;;;;;3.13;2.05;;;36.40;35.40;;;;;;5055865;28;20021;-76
2023/07/08 11:15:22;;;;;;;2.65;2.30;;;37.10;35.50;;;;;;5042559;28;20037;-80
2023/07/08 11:18:14;;;;;;;2.97;2.20;;;36.70;34.60;;;;;;5037008;28;20029;-76
2023/07/08 11:20:50;;;;;;;2.88;2.05;;;36.00;34.50;;;;;;5054847;28;20056;-75
2023/07/08 11:23:38;;;;;;;2.65;2.45;;;35.70;36.00;;;;;;5054869;28;20021;-75
2023/07/08 11:26:10;;;;;;;;;;;35.70;35.20;;;;;;5055230;28;20025;-76
2023/07/08 11:28:36;;;;;;;3.28;2.53;;;35.30;34.90;;;;;;5054909;28;19948;-76
2023/07/08 11:31:02;;;;;;;4.75;2.22;;;35.50;35.80;;;;;;5054762;28;20527;-75
2023/07/08 11:33:30;;;;;;;2.28;2.05;;;35.80;36.20;;;;;;5054724;28;20025;-75
2023/07/08 11:35:58;;;;;;;3.33;2.03;;;35.70;35.40;;;;;;5036586;28;20108;-74
2023/07/08 11:38:24;;;;;;;;;;;35.70;35.00;;;;;;5054512;28;20028;-75
2023/07/08 11:40:53;;;;;;;4.28;2.13;;;36.10;34.90;;;;;;5036284;28;19927;-76
2023/07/08 11:43:20;;;;;;;2.95;1.92;;;36.50;33.80;;;;;;5037575;28;20029;-78
2023/07/08 11:45:48;;;;;;;2.83;2.10;;;37.10;34.50;;;;;;5037408;28;20075;-76
2023/07/08 11:48:29;;;;;;;3.53;2.08;;;37.50;34.90;;;;;;5037544;28;20033;-76
2023/07/08 11:50:55;;;;;;;2.83;2.15;;;37.60;34.20;;;;;;5051325;28;20101;-76
2023/07/08 11:53:30;;;;;;;3.30;1.95;;;37.60;32.60;;;;;;5074845;28;20032;-76
2023/07/08 11:56:10;;;;;;;1.85;1.75;;;37.10;32.70;;;;;;5074518;28;20104;-76
2023/07/08 11:58:59;;;;;;;5.18;1.90;;;36.60;32.60;;;;;;5074373;28;20094;-76
2023/07/08 12:01:40;;;;;;;2.28;2.08;;;36.60;33.10;;;;;;5074589;28;20024;-75
2023/07/08 12:04:08;;;;;;;4.03;2.40;;;36.90;32.30;;;;;;5073018;28;20025;-75
2023/07/08 12:06:34;;;;;;;2.17;1.92;;;35.90;32.40;;;;;;5073902;28;20024;-74
2023/07/08 12:09:14;;;;;;;2.08;1.95;;;35.60;32.60;;;;;;5074254;28;20033;-75
2023/07/08 12:11:44;;;;;;;6.68;2.20;;;35.70;33.00;;;;;;5073903;28;20028;-75
2023/07/08 12:14:10;;;;;;;3.53;1.88;;;35.90;34.00;;;;;;5075118;28;20111;-74
2023/07/08 12:16:36;;;;;;;2.45;2.03;;;36.50;33.20;;;;;;5074169;28;20107;-74
2023/07/08 12:19:05;;;;;;;2.65;2.10;;;37.10;32.20;;;;;;5074614;28;20059;-74
2023/07/08 12:21:35;;;;;;;2.13;1.90;;;37.10;31.90;;;;;;5073465;28;20028;-74
2023/07/08 12:24:05;;;;;;;2.20;2.10;;;36.40;32.60;;;;;;5074955;28;20031;-74
2023/07/08 12:26:32;;;;;;;2.22;1.90;;;36.60;33.30;;;;;;5074433;28;20070;-78
2023/07/08 12:28:58;;;;;;;5.88;2.13;;;37.10;32.80;;;;;;5072988;28;20490;-77
2023/07/08 12:31:24;;;;;;;2.38;2.13;;;36.80;32.90;;;;;;5076872;28;20107;-77
2023/07/08 12:33:50;;;;;;;2.22;2.03;;;37.00;31.80;;;;;;5075311;28;20024;-76
2023/07/08 12:36:24;;;;;;;3.28;2.03;;;36.80;31.50;;;;;;5076945;28;20028;-76
2023/07/08 12:38:51;;;;;;;3.00;1.90;;;36.80;31.30;;;;;;5077138;28;20384;-76
2023/07/08 12:41:24;;;;;;;2.13;1.95;;;37.30;31.60;;;;;;5075457;28;20031;-76
2023/07/08 12:43:51;;;;;;;3.20;1.88;;;37.70;32.00;;;;;;5075523;28;20025;-76
2023/07/08 12:46:19;;;;;;;3.30;2.08;;;38.20;32.00;;;;;;5076659;28;20142;-76
2023/07/08 12:48:44;;;;;;;;;;;38.20;31.90;;;;;;5075715;28;20047;-77
2023/07/08 12:51:15;;;;;;;2.72;2.08;;;38.60;32.30;;;;;;5065673;28;19921;-76
2023/07/08 12:53:42;;;;;;;5.07;2.75;;;38.90;31.00;;;;;;5039169;28;20052;-76
2023/07/08 12:56:09;;;;;;;4.37;2.10;;;38.80;30.80;;;;;;5056483;28;20049;-76
2023/07/08 12:58:43;;;;;;;3.33;2.15;;;38.60;31.60;;;;;;5039059;28;20130;-75
2023/07/08 13:01:11;;;;;;;3.92;2.40;;;38.50;30.90;;;;;;5038452;28;20565;-76